createdAt,value
2022-12-12T00:03:12.474Z,3.56
2022-12-12T00:08:18.389Z,3.31
2022-12-12T00:13:22.468Z,3.65
2022-12-12T00:18:28.217Z,3.49
2022-12-12T00:23:32.267Z,3.63
2022-12-12T00:28:36.616Z,3.72
2022-12-12T00:33:42.741Z,3.55
2022-12-12T00:38:47.654Z,3.59
2022-12-12T00:43:52.167Z,3.35
2022-12-12T00:48:59.683Z,3.32
2022-12-12T00:54:03.784Z,3.49
2022-12-12T00:59:08.105Z,3.65
2022-12-12T01:04:14.781Z,3.62
2022-12-12T01:09:18.949Z,3.83
2022-12-12T01:14:23.625Z,4.15
2022-12-12T01:19:29.043Z,4.68
2022-12-12T01:24:33.382Z,4.25
2022-12-12T01:29:38.183Z,4.44
2022-12-12T01:34:43.561Z,4.87
2022-12-12T01:39:48.189Z,4.76
2022-12-12T01:44:54.298Z,4.79
2022-12-12T01:50:04.378Z,4.75
2022-12-12T01:55:14.886Z,4.74
2022-12-12T02:00:19.759Z,4.72
2022-12-12T02:05:31.770Z,4.63
2022-12-12T02:10:35.988Z,4.62
2022-12-12T02:15:43.921Z,4.35
2022-12-12T02:20:58.201Z,4.54
2022-12-12T02:27:02.128Z,4.62
2022-12-12T02:32:17.498Z,4.49
2022-12-12T02:37:26.663Z,4.39
2022-12-12T02:42:41.447Z,4.42
2022-12-12T02:47:52.580Z,4.47
2022-12-12T02:52:56.596Z,4.36
2022-12-12T02:58:01.488Z,4.15
2022-12-12T03:03:53.766Z,4.19
2022-12-12T03:09:08.562Z,3.99
2022-12-12T03:14:22.947Z,3.50
2022-12-12T03:19:31.995Z,3.41
2022-12-12T03:24:43.462Z,3.72
2022-12-12T03:29:53.375Z,4.02
2022-12-12T03:35:01.878Z,4.29
2022-12-12T03:40:11.126Z,4.19
2022-12-12T03:45:20.083Z,4.28
2022-12-12T03:50:30.784Z,4.32
2022-12-12T03:55:42.080Z,4.16
2022-12-12T04:00:50.512Z,4.07
2022-12-12T04:06:19.423Z,4.09
2022-12-12T04:11:41.093Z,4.18
2022-12-12T04:16:48.334Z,4.14
2022-12-12T04:22:27.498Z,4.16
2022-12-12T04:27:38.608Z,4.38
2022-12-12T04:32:46.948Z,4.28
2022-12-12T04:37:55.151Z,4.16
2022-12-12T04:43:03.437Z,4.25
2022-12-12T04:48:11.068Z,3.87
2022-12-12T04:53:18.953Z,3.90
2022-12-12T04:58:23.616Z,4.01
2022-12-12T05:03:37.394Z,3.86
2022-12-12T05:08:45.424Z,4.12
2022-12-12T05:13:50.614Z,4.11
2022-12-12T05:18:55.070Z,4.14
2022-12-12T05:24:00.898Z,4.19
2022-12-12T05:29:07.651Z,3.82
2022-12-12T05:34:11.947Z,3.94
2022-12-12T05:39:19.480Z,3.72
2022-12-12T05:44:23.456Z,3.62
2022-12-12T05:49:27.581Z,3.49
2022-12-12T05:54:33.326Z,3.19
2022-12-12T05:59:37.454Z,3.10
2022-12-12T06:04:41.558Z,3.14
2022-12-12T06:09:47.389Z,3.37
2022-12-12T06:14:51.369Z,3.54
2022-12-12T06:19:55.705Z,3.54
2022-12-12T06:25:01.041Z,3.64
2022-12-12T06:30:07.761Z,3.66
2022-12-12T06:35:12.839Z,3.61
2022-12-12T06:40:18.795Z,3.58
2022-12-12T06:45:24.579Z,3.19
2022-12-12T06:50:29.695Z,3.06
2022-12-12T06:55:35.565Z,3.19
2022-12-12T07:00:39.653Z,3.62
2022-12-12T07:05:45.047Z,3.88
2022-12-12T07:10:53.631Z,3.92
2022-12-12T07:16:00.149Z,4.24
2022-12-12T07:21:06.217Z,4.40
2022-12-12T07:26:15.972Z,4.35
2022-12-12T07:31:22.655Z,4.47
2022-12-12T07:36:26.994Z,4.26
2022-12-12T07:41:32.492Z,4.20
2022-12-12T07:46:38.365Z,4.32
2022-12-12T07:51:48.731Z,4.77
2022-12-12T07:56:55.200Z,5.02
2022-12-12T08:01:59.911Z,5.02
2022-12-12T08:07:08.518Z,5.39
2022-12-12T08:12:14.940Z,5.62
2022-12-12T08:17:20.562Z,5.77
2022-12-12T08:22:26.601Z,6.48
2022-12-12T08:27:32.781Z,6.70
2022-12-12T08:32:37.393Z,7.60
2022-12-12T08:37:41.681Z,7.47
2022-12-12T08:42:47.433Z,9.21
2022-12-12T08:47:52.698Z,10.73
2022-12-12T08:52:56.621Z,10.09
2022-12-12T08:58:02.272Z,9.48
2022-12-12T09:03:06.741Z,9.68
2022-12-12T09:08:11.119Z,9.66
2022-12-12T09:13:18.362Z,10.41
2022-12-12T09:18:26.856Z,11.13
2022-12-12T09:23:30.999Z,11.68
2022-12-12T09:28:37.301Z,12.13
2022-12-12T09:33:42.952Z,13.94
2022-12-12T09:38:46.941Z,14.51
2022-12-12T09:43:59.220Z,15.38
2022-12-12T09:49:13.253Z,17.06
2022-12-12T09:54:21.935Z,16.44
2022-12-12T09:59:35.290Z,15.99
2022-12-12T10:04:49.400Z,13.28
2022-12-12T10:10:04.001Z,12.51
2022-12-12T10:15:23.175Z,11.83
2022-12-12T10:20:30.966Z,10.97
2022-12-12T10:25:45.586Z,11.12
2022-12-12T10:31:14.208Z,10.82
2022-12-12T10:36:29.918Z,10.83
2022-12-12T10:41:42.737Z,10.45
2022-12-12T10:46:55.612Z,10.34
2022-12-12T10:52:07.730Z,10.24
2022-12-12T10:57:20.102Z,10.11
2022-12-12T11:02:31.259Z,10.13
2022-12-12T11:07:39.235Z,10.26
2022-12-12T11:12:44.644Z,10.35
2022-12-12T11:17:51.946Z,10.31
2022-12-12T11:22:58.531Z,10.11
2022-12-12T11:28:06.849Z,9.83
2022-12-12T11:33:21.776Z,9.87
2022-12-12T11:38:29.264Z,9.97
2022-12-12T11:43:37.801Z,11.12
2022-12-12T11:48:46.280Z,11.85
2022-12-12T11:53:50.322Z,11.57
2022-12-12T11:59:01.722Z,11.25
2022-12-12T12:04:20.679Z,10.80
2022-12-12T12:09:34.294Z,10.51
2022-12-12T12:14:52.635Z,10.13
2022-12-12T12:20:13.613Z,10.26
2022-12-12T12:25:39.879Z,10.19
2022-12-12T12:31:01.636Z,10.51
2022-12-12T12:36:20.949Z,10.64
2022-12-12T12:41:35.048Z,10.64
2022-12-12T12:46:49.337Z,10.28
2022-12-12T12:51:59.231Z,10.23
2022-12-12T12:57:08.343Z,10.49
2022-12-12T13:02:27.043Z,10.57
2022-12-12T13:07:41.410Z,10.63
2022-12-12T13:12:51.444Z,10.26
2022-12-12T13:18:01.541Z,10.10
2022-12-12T13:23:18.781Z,10.07
2022-12-12T13:28:27.133Z,9.88
2022-12-12T13:33:42.813Z,9.85
2022-12-12T13:38:57.511Z,9.88
2022-12-12T13:44:05.539Z,9.73
2022-12-12T13:49:23.525Z,9.59
2022-12-12T13:54:55.342Z,9.26
2022-12-12T14:00:35.566Z,9.47
2022-12-12T14:05:41.987Z,9.39
2022-12-12T14:10:58.713Z,8.93
2022-12-12T14:16:08.590Z,8.74
2022-12-12T14:21:16.279Z,8.46
2022-12-12T14:26:50.476Z,8.31
2022-12-12T14:32:07.753Z,8.46
2022-12-12T14:37:32.658Z,8.29
2022-12-12T14:43:20.625Z,8.19
2022-12-12T14:48:23.226Z,7.99
2022-12-12T14:53:33.160Z,7.87
2022-12-12T14:58:42.632Z,7.77
2022-12-12T15:03:51.076Z,7.61
2022-12-12T15:08:56.863Z,7.49
2022-12-12T15:14:08.073Z,7.39
2022-12-12T15:19:17.334Z,7.58
2022-12-12T15:24:25.625Z,7.46
2022-12-12T15:29:33.424Z,7.43
2022-12-12T15:34:40.838Z,7.52
2022-12-12T15:39:45.729Z,7.49
2022-12-12T15:45:05.245Z,7.23
2022-12-12T15:50:14.658Z,7.02
2022-12-12T15:55:28.761Z,6.91
2022-12-12T16:00:40.656Z,6.85
2022-12-12T16:05:46.554Z,7.10
2022-12-12T16:10:59.447Z,7.19
2022-12-12T16:16:43.934Z,7.29
2022-12-12T16:21:53.099Z,7.10
2022-12-12T16:27:00.211Z,7.19
2022-12-12T16:32:07.328Z,7.02
2022-12-12T16:37:15.816Z,7.19
2022-12-12T16:42:24.322Z,6.88
2022-12-12T16:47:35.035Z,6.75
2022-12-12T16:52:39.660Z,6.70
2022-12-12T16:57:44.761Z,6.66
2022-12-12T17:02:50.591Z,6.64
2022-12-12T17:07:56.449Z,6.60
2022-12-12T17:13:00.575Z,6.53
2022-12-12T17:18:06.893Z,6.45
2022-12-12T17:23:30.120Z,6.73
2022-12-12T17:28:36.670Z,6.89
2022-12-12T17:33:50.265Z,6.74
2022-12-12T17:38:55.471Z,6.59
2022-12-12T17:43:59.571Z,6.66
2022-12-12T17:49:06.676Z,6.71
2022-12-12T17:54:11.152Z,6.41
2022-12-12T17:59:15.442Z,5.86
2022-12-12T18:04:27.963Z,5.74
2022-12-12T18:09:33.630Z,5.69
2022-12-12T18:14:42.658Z,5.48
2022-12-12T18:19:51.558Z,5.41
2022-12-12T18:24:55.619Z,5.06
2022-12-12T18:29:59.664Z,4.77
2022-12-12T18:35:08.326Z,4.77
2022-12-12T18:40:13.125Z,4.68
2022-12-12T18:45:17.958Z,4.54
2022-12-12T18:50:25.814Z,4.27
2022-12-12T18:55:30.546Z,3.94
2022-12-12T19:00:35.547Z,3.62
2022-12-12T19:05:43.486Z,3.48
2022-12-12T19:10:50.151Z,3.06
2022-12-12T19:15:54.229Z,2.92
2022-12-12T19:21:05.476Z,2.58
2022-12-12T19:26:15.635Z,2.49
2022-12-12T19:31:20.708Z,2.62
2022-12-12T19:36:31.255Z,2.38
2022-12-12T19:41:36.280Z,2.19
2022-12-12T19:46:45.817Z,1.96
2022-12-12T19:51:51.434Z,1.86
2022-12-12T19:56:56.447Z,1.35
2022-12-12T20:02:02.715Z,1.27
2022-12-12T20:07:08.028Z,1.20
2022-12-12T20:12:12.077Z,1.27
2022-12-12T20:17:16.013Z,1.35
2022-12-12T20:22:22.662Z,1.35
2022-12-12T20:27:28.026Z,1.38
2022-12-12T20:32:31.976Z,1.34
2022-12-12T20:37:39.146Z,1.46
2022-12-12T20:42:48.776Z,2.07
2022-12-12T20:48:01.711Z,2.11
2022-12-12T20:53:09.772Z,2.25
2022-12-12T20:58:13.842Z,2.29
2022-12-12T21:03:17.852Z,2.73
2022-12-12T21:08:23.373Z,2.98
2022-12-12T21:13:28.779Z,3.04
2022-12-12T21:18:33.184Z,3.36
2022-12-12T21:23:39.811Z,2.88
2022-12-12T21:28:45.669Z,2.99
2022-12-12T21:33:51.365Z,2.89
2022-12-12T21:38:59.005Z,2.65
2022-12-12T21:44:04.340Z,2.78
2022-12-12T21:49:26.469Z,2.56
2022-12-12T21:54:33.955Z,2.65
2022-12-12T21:59:38.806Z,2.51
2022-12-12T22:04:42.754Z,2.56
2022-12-12T22:09:58.074Z,2.10
2022-12-12T22:15:14.643Z,1.86
2022-12-12T22:20:25.491Z,1.44
2022-12-12T22:25:34.044Z,1.64
2022-12-12T22:30:41.624Z,1.40
2022-12-12T22:35:45.818Z,1.65
2022-12-12T22:40:56.817Z,1.49
2022-12-12T22:46:06.274Z,1.40
2022-12-12T22:51:19.615Z,1.40
2022-12-12T22:56:25.291Z,1.46
2022-12-12T23:01:30.412Z,1.48
2022-12-12T23:06:36.464Z,1.22
2022-12-12T23:11:42.110Z,1.15
2022-12-12T23:16:47.383Z,1.03
2022-12-12T23:21:52.337Z,0.83
2022-12-12T23:26:58.515Z,0.59
2022-12-12T23:32:04.614Z,0.47
2022-12-12T23:37:09.993Z,0.08
2022-12-12T23:42:15.769Z,0.13
2022-12-12T23:47:19.731Z,0.01
2022-12-12T23:52:23.858Z,-0.21
2022-12-12T23:57:29.656Z,-0.26
